sensor_id;sensor_type;location;lat;lon;timestamp;P1;durP1;ratioP1;P2;durP2;ratioP2
52866;SDS011;38739;53.324;6.862;2022-08-07T00:01:15;10.10;;;6.80;;
52866;SDS011;38739;53.324;6.862;2022-08-07T00:03:42;8.70;;;6.70;;
52866;SDS011;38739;53.324;6.862;2022-08-07T00:06:08;12.35;;;7.05;;
52866;SDS011;38739;53.324;6.862;2022-08-07T00:08:33;13.02;;;7.05;;
52866;SDS011;38739;53.324;6.862;2022-08-07T00:11:01;11.07;;;7.03;;
52866;SDS011;38739;53.324;6.862;2022-08-07T00:13:28;8.25;;;6.93;;
52866;SDS011;38739;53.324;6.862;2022-08-07T00:15:54;10.68;;;7.43;;
52866;SDS011;38739;53.324;6.862;2022-08-07T00:18:21;9.48;;;7.18;;
52866;SDS011;38739;53.324;6.862;2022-08-07T00:20:48;9.43;;;7.03;;
52866;SDS011;38739;53.324;6.862;2022-08-07T00:23:15;12.23;;;7.47;;
52866;SDS011;38739;53.324;6.862;2022-08-07T00:25:41;12.07;;;7.20;;
52866;SDS011;38739;53.324;6.862;2022-08-07T00:28:06;10.13;;;7.10;;
52866;SDS011;38739;53.324;6.862;2022-08-07T00:30:32;9.52;;;7.05;;
52866;SDS011;38739;53.324;6.862;2022-08-07T00:32:58;10.60;;;7.68;;
52866;SDS011;38739;53.324;6.862;2022-08-07T00:35:25;11.50;;;6.90;;
52866;SDS011;38739;53.324;6.862;2022-08-07T00:37:52;12.15;;;7.82;;
52866;SDS011;38739;53.324;6.862;2022-08-07T00:40:18;10.50;;;7.38;;
52866;SDS011;38739;53.324;6.862;2022-08-07T00:42:44;10.45;;;7.20;;
52866;SDS011;38739;53.324;6.862;2022-08-07T00:45:10;10.95;;;7.97;;
52866;SDS011;38739;53.324;6.862;2022-08-07T00:47:39;10.68;;;7.63;;
52866;SDS011;38739;53.324;6.862;2022-08-07T00:50:05;10.77;;;7.40;;
52866;SDS011;38739;53.324;6.862;2022-08-07T00:52:31;11.07;;;7.70;;
52866;SDS011;38739;53.324;6.862;2022-08-07T00:54:58;10.57;;;8.35;;
52866;SDS011;38739;53.324;6.862;2022-08-07T00:57:24;11.48;;;8.40;;
52866;SDS011;38739;53.324;6.862;2022-08-07T00:59:50;11.02;;;7.95;;
52866;SDS011;38739;53.324;6.862;2022-08-07T01:02:16;11.70;;;7.88;;
52866;SDS011;38739;53.324;6.862;2022-08-07T01:04:43;12.30;;;8.27;;
52866;SDS011;38739;53.324;6.862;2022-08-07T01:07:09;9.30;;;7.57;;
52866;SDS011;38739;53.324;6.862;2022-08-07T01:09:36;9.68;;;7.28;;
52866;SDS011;38739;53.324;6.862;2022-08-07T01:12:01;9.48;;;7.63;;
52866;SDS011;38739;53.324;6.862;2022-08-07T01:14:28;12.27;;;8.45;;
52866;SDS011;38739;53.324;6.862;2022-08-07T01:16:54;14.32;;;8.32;;
52866;SDS011;38739;53.324;6.862;2022-08-07T01:19:21;9.77;;;7.47;;
52866;SDS011;38739;53.324;6.862;2022-08-07T01:21:48;10.52;;;7.40;;
52866;SDS011;38739;53.324;6.862;2022-08-07T01:24:15;12.65;;;7.97;;
52866;SDS011;38739;53.324;6.862;2022-08-07T01:26:42;12.05;;;8.35;;
52866;SDS011;38739;53.324;6.862;2022-08-07T01:29:08;13.43;;;9.00;;
52866;SDS011;38739;53.324;6.862;2022-08-07T01:31:35;14.65;;;8.80;;
52866;SDS011;38739;53.324;6.862;2022-08-07T01:34:02;16.58;;;8.80;;
52866;SDS011;38739;53.324;6.862;2022-08-07T01:36:28;13.50;;;9.10;;
52866;SDS011;38739;53.324;6.862;2022-08-07T01:38:54;15.77;;;9.07;;
52866;SDS011;38739;53.324;6.862;2022-08-07T01:41:21;13.32;;;8.77;;
52866;SDS011;38739;53.324;6.862;2022-08-07T01:43:48;13.30;;;8.60;;
52866;SDS011;38739;53.324;6.862;2022-08-07T01:46:14;11.32;;;8.32;;
52866;SDS011;38739;53.324;6.862;2022-08-07T01:48:41;11.25;;;8.73;;
52866;SDS011;38739;53.324;6.862;2022-08-07T01:51:08;12.57;;;9.05;;
52866;SDS011;38739;53.324;6.862;2022-08-07T01:53:38;14.10;;;9.20;;
52866;SDS011;38739;53.324;6.862;2022-08-07T01:56:09;12.38;;;8.90;;
52866;SDS011;38739;53.324;6.862;2022-08-07T01:58:42;14.68;;;9.52;;
52866;SDS011;38739;53.324;6.862;2022-08-07T02:01:19;15.38;;;9.25;;
52866;SDS011;38739;53.324;6.862;2022-08-07T02:03:53;12.30;;;9.27;;
52866;SDS011;38739;53.324;6.862;2022-08-07T02:06:27;11.13;;;8.32;;
52866;SDS011;38739;53.324;6.862;2022-08-07T02:08:55;16.02;;;8.80;;
52866;SDS011;38739;53.324;6.862;2022-08-07T02:11:24;15.25;;;9.13;;
52866;SDS011;38739;53.324;6.862;2022-08-07T02:13:50;13.95;;;9.43;;
52866;SDS011;38739;53.324;6.862;2022-08-07T02:16:18;13.05;;;8.45;;
52866;SDS011;38739;53.324;6.862;2022-08-07T02:18:48;13.00;;;8.13;;
52866;SDS011;38739;53.324;6.862;2022-08-07T02:21:14;13.40;;;8.00;;
52866;SDS011;38739;53.324;6.862;2022-08-07T02:23:42;14.93;;;9.20;;
52866;SDS011;38739;53.324;6.862;2022-08-07T02:26:09;11.75;;;8.68;;
52866;SDS011;38739;53.324;6.862;2022-08-07T02:28:35;13.80;;;8.98;;
52866;SDS011;38739;53.324;6.862;2022-08-07T02:31:03;13.02;;;8.68;;
52866;SDS011;38739;53.324;6.862;2022-08-07T02:33:30;11.65;;;8.25;;
52866;SDS011;38739;53.324;6.862;2022-08-07T02:35:58;13.95;;;8.02;;
52866;SDS011;38739;53.324;6.862;2022-08-07T02:38:30;14.25;;;8.43;;
52866;SDS011;38739;53.324;6.862;2022-08-07T02:40:59;12.05;;;7.75;;
52866;SDS011;38739;53.324;6.862;2022-08-07T02:43:26;13.63;;;8.15;;
52866;SDS011;38739;53.324;6.862;2022-08-07T02:45:53;13.00;;;8.02;;
52866;SDS011;38739;53.324;6.862;2022-08-07T02:48:22;12.70;;;7.38;;
52866;SDS011;38739;53.324;6.862;2022-08-07T02:50:49;12.98;;;8.07;;
52866;SDS011;38739;53.324;6.862;2022-08-07T02:53:32;13.27;;;7.95;;
52866;SDS011;38739;53.324;6.862;2022-08-07T02:56:00;14.55;;;8.43;;
52866;SDS011;38739;53.324;6.862;2022-08-07T02:58:28;14.30;;;8.75;;
52866;SDS011;38739;53.324;6.862;2022-08-07T03:00:56;14.15;;;8.82;;
52866;SDS011;38739;53.324;6.862;2022-08-07T03:03:24;16.50;;;8.90;;
52866;SDS011;38739;53.324;6.862;2022-08-07T03:05:51;12.23;;;8.55;;
52866;SDS011;38739;53.324;6.862;2022-08-07T03:08:19;14.93;;;8.93;;
52866;SDS011;38739;53.324;6.862;2022-08-07T03:10:45;15.43;;;8.85;;
52866;SDS011;38739;53.324;6.862;2022-08-07T03:13:15;13.13;;;8.80;;
52866;SDS011;38739;53.324;6.862;2022-08-07T03:15:41;13.48;;;9.70;;
52866;SDS011;38739;53.324;6.862;2022-08-07T03:18:09;12.13;;;8.68;;
52866;SDS011;38739;53.324;6.862;2022-08-07T03:20:35;13.05;;;9.10;;
52866;SDS011;38739;53.324;6.862;2022-08-07T03:23:02;15.05;;;9.30;;
52866;SDS011;38739;53.324;6.862;2022-08-07T03:25:28;12.55;;;8.55;;
52866;SDS011;38739;53.324;6.862;2022-08-07T03:27:57;13.25;;;9.70;;
52866;SDS011;38739;53.324;6.862;2022-08-07T03:30:24;12.85;;;9.48;;
52866;SDS011;38739;53.324;6.862;2022-08-07T03:32:51;14.65;;;10.10;;
52866;SDS011;38739;53.324;6.862;2022-08-07T03:35:22;14.20;;;9.18;;
52866;SDS011;38739;53.324;6.862;2022-08-07T03:37:56;14.43;;;9.68;;
52866;SDS011;38739;53.324;6.862;2022-08-07T03:40:25;15.77;;;10.07;;
52866;SDS011;38739;53.324;6.862;2022-08-07T03:42:51;15.05;;;9.43;;
52866;SDS011;38739;53.324;6.862;2022-08-07T03:45:21;17.88;;;10.32;;
52866;SDS011;38739;53.324;6.862;2022-08-07T03:47:49;14.32;;;10.07;;
52866;SDS011;38739;53.324;6.862;2022-08-07T03:50:15;14.68;;;9.75;;
52866;SDS011;38739;53.324;6.862;2022-08-07T03:52:44;15.80;;;10.40;;
52866;SDS011;38739;53.324;6.862;2022-08-07T03:55:11;15.10;;;9.70;;
52866;SDS011;38739;53.324;6.862;2022-08-07T03:57:37;16.27;;;10.20;;
52866;SDS011;38739;53.324;6.862;2022-08-07T04:00:05;13.73;;;9.45;;
52866;SDS011;38739;53.324;6.862;2022-08-07T04:02:31;15.10;;;9.60;;
52866;SDS011;38739;53.324;6.862;2022-08-07T04:04:57;15.55;;;9.82;;
52866;SDS011;38739;53.324;6.862;2022-08-07T04:07:23;17.17;;;9.80;;
52866;SDS011;38739;53.324;6.862;2022-08-07T04:09:49;19.02;;;10.30;;
52866;SDS011;38739;53.324;6.862;2022-08-07T04:12:15;13.50;;;9.90;;
52866;SDS011;38739;53.324;6.862;2022-08-07T04:14:42;13.95;;;10.05;;
52866;SDS011;38739;53.324;6.862;2022-08-07T04:17:08;13.75;;;9.80;;
52866;SDS011;38739;53.324;6.862;2022-08-07T04:19:34;16.25;;;10.25;;
52866;SDS011;38739;53.324;6.862;2022-08-07T04:22:01;18.30;;;9.95;;
52866;SDS011;38739;53.324;6.862;2022-08-07T04:24:27;14.57;;;9.02;;
52866;SDS011;38739;53.324;6.862;2022-08-07T04:26:53;13.80;;;10.00;;
52866;SDS011;38739;53.324;6.862;2022-08-07T04:29:21;17.83;;;9.70;;
52866;SDS011;38739;53.324;6.862;2022-08-07T04:31:48;17.65;;;9.63;;
52866;SDS011;38739;53.324;6.862;2022-08-07T04:34:14;13.07;;;9.32;;
52866;SDS011;38739;53.324;6.862;2022-08-07T04:36:41;13.75;;;9.13;;
52866;SDS011;38739;53.324;6.862;2022-08-07T04:39:07;12.85;;;9.07;;
52866;SDS011;38739;53.324;6.862;2022-08-07T04:41:34;13.73;;;9.13;;
52866;SDS011;38739;53.324;6.862;2022-08-07T04:44:00;13.68;;;9.02;;
52866;SDS011;38739;53.324;6.862;2022-08-07T04:49:41;14.27;;;9.70;;
52866;SDS011;38739;53.324;6.862;2022-08-07T04:52:27;14.35;;;9.80;;
52866;SDS011;38739;53.324;6.862;2022-08-07T05:00:39;12.77;;;8.98;;
52866;SDS011;38739;53.324;6.862;2022-08-07T05:03:28;12.37;;;8.70;;
52866;SDS011;38739;53.324;6.862;2022-08-07T05:06:21;12.65;;;8.98;;
52866;SDS011;38739;53.324;6.862;2022-08-07T05:12:02;13.75;;;8.55;;
52866;SDS011;38739;53.324;6.862;2022-08-07T05:14:32;12.40;;;8.77;;
52866;SDS011;38739;53.324;6.862;2022-08-07T05:17:03;13.30;;;8.27;;
52866;SDS011;38739;53.324;6.862;2022-08-07T05:19:34;10.82;;;7.88;;
52866;SDS011;38739;53.324;6.862;2022-08-07T05:22:02;11.90;;;8.55;;
52866;SDS011;38739;53.324;6.862;2022-08-07T05:24:30;11.63;;;8.43;;
52866;SDS011;38739;53.324;6.862;2022-08-07T05:26:57;12.65;;;8.13;;
52866;SDS011;38739;53.324;6.862;2022-08-07T05:29:26;10.98;;;7.65;;
52866;SDS011;38739;53.324;6.862;2022-08-07T05:31:54;11.95;;;8.07;;
52866;SDS011;38739;53.324;6.862;2022-08-07T05:34:20;11.43;;;7.40;;
52866;SDS011;38739;53.324;6.862;2022-08-07T05:36:52;14.15;;;7.80;;
52866;SDS011;38739;53.324;6.862;2022-08-07T05:39:19;9.93;;;6.88;;
52866;SDS011;38739;53.324;6.862;2022-08-07T05:41:46;11.05;;;7.35;;
52866;SDS011;38739;53.324;6.862;2022-08-07T05:44:13;10.48;;;6.88;;
52866;SDS011;38739;53.324;6.862;2022-08-07T05:46:42;10.25;;;7.13;;
52866;SDS011;38739;53.324;6.862;2022-08-07T05:49:10;10.38;;;7.15;;
52866;SDS011;38739;53.324;6.862;2022-08-07T05:51:36;10.52;;;6.85;;
52866;SDS011;38739;53.324;6.862;2022-08-07T05:54:02;12.02;;;7.43;;
52866;SDS011;38739;53.324;6.862;2022-08-07T05:56:28;10.90;;;7.43;;
52866;SDS011;38739;53.324;6.862;2022-08-07T05:58:55;11.88;;;7.38;;
52866;SDS011;38739;53.324;6.862;2022-08-07T06:01:24;12.57;;;6.95;;
52866;SDS011;38739;53.324;6.862;2022-08-07T06:03:52;12.77;;;7.05;;
52866;SDS011;38739;53.324;6.862;2022-08-07T06:06:19;11.52;;;7.25;;
52866;SDS011;38739;53.324;6.862;2022-08-07T06:08:45;11.88;;;6.00;;
52866;SDS011;38739;53.324;6.862;2022-08-07T06:11:12;11.82;;;6.82;;
52866;SDS011;38739;53.324;6.862;2022-08-07T06:13:38;11.25;;;5.88;;
52866;SDS011;38739;53.324;6.862;2022-08-07T06:16:05;10.65;;;6.38;;
52866;SDS011;38739;53.324;6.862;2022-08-07T06:18:32;8.73;;;5.93;;
52866;SDS011;38739;53.324;6.862;2022-08-07T06:20:59;11.18;;;6.63;;
52866;SDS011;38739;53.324;6.862;2022-08-07T06:23:25;9.48;;;6.70;;
52866;SDS011;38739;53.324;6.862;2022-08-07T06:25:51;7.93;;;5.97;;
52866;SDS011;38739;53.324;6.862;2022-08-07T06:28:17;9.23;;;6.38;;
52866;SDS011;38739;53.324;6.862;2022-08-07T06:30:43;8.88;;;6.38;;
52866;SDS011;38739;53.324;6.862;2022-08-07T06:33:09;8.48;;;5.70;;
52866;SDS011;38739;53.324;6.862;2022-08-07T06:35:35;9.38;;;6.07;;
52866;SDS011;38739;53.324;6.862;2022-08-07T06:38:01;8.98;;;6.13;;
52866;SDS011;38739;53.324;6.862;2022-08-07T06:40:34;10.18;;;5.88;;
52866;SDS011;38739;53.324;6.862;2022-08-07T06:43:04;7.22;;;5.95;;
52866;SDS011;38739;53.324;6.862;2022-08-07T06:45:33;7.53;;;5.20;;
52866;SDS011;38739;53.324;6.862;2022-08-07T06:47:59;7.97;;;5.72;;
52866;SDS011;38739;53.324;6.862;2022-08-07T06:50:25;7.05;;;5.28;;
52866;SDS011;38739;53.324;6.862;2022-08-07T06:52:53;7.57;;;5.05;;
52866;SDS011;38739;53.324;6.862;2022-08-07T06:55:24;8.10;;;4.90;;
52866;SDS011;38739;53.324;6.862;2022-08-07T06:57:54;6.18;;;4.88;;
52866;SDS011;38739;53.324;6.862;2022-08-07T07:00:23;6.75;;;4.82;;
52866;SDS011;38739;53.324;6.862;2022-08-07T07:02:51;6.22;;;4.43;;
52866;SDS011;38739;53.324;6.862;2022-08-07T07:05:21;7.25;;;4.60;;
52866;SDS011;38739;53.324;6.862;2022-08-07T07:07:47;6.85;;;4.53;;
52866;SDS011;38739;53.324;6.862;2022-08-07T07:10:13;5.32;;;4.22;;
52866;SDS011;38739;53.324;6.862;2022-08-07T07:12:44;5.90;;;4.13;;
52866;SDS011;38739;53.324;6.862;2022-08-07T07:15:20;5.85;;;4.28;;
52866;SDS011;38739;53.324;6.862;2022-08-07T07:18:03;6.00;;;4.15;;
52866;SDS011;38739;53.324;6.862;2022-08-07T07:20:41;7.50;;;3.88;;
52866;SDS011;38739;53.324;6.862;2022-08-07T07:23:10;6.05;;;3.90;;
52866;SDS011;38739;53.324;6.862;2022-08-07T07:25:38;4.40;;;3.42;;
52866;SDS011;38739;53.324;6.862;2022-08-07T07:28:06;7.82;;;3.60;;
52866;SDS011;38739;53.324;6.862;2022-08-07T07:31:05;6.30;;;2.95;;
52866;SDS011;38739;53.324;6.862;2022-08-07T07:33:36;8.15;;;3.30;;
52866;SDS011;38739;53.324;6.862;2022-08-07T07:36:03;4.75;;;2.95;;
52866;SDS011;38739;53.324;6.862;2022-08-07T07:38:31;3.55;;;2.83;;
52866;SDS011;38739;53.324;6.862;2022-08-07T07:40:59;5.05;;;3.80;;
52866;SDS011;38739;53.324;6.862;2022-08-07T07:43:28;7.60;;;4.38;;
52866;SDS011;38739;53.324;6.862;2022-08-07T07:45:55;6.22;;;3.67;;
52866;SDS011;38739;53.324;6.862;2022-08-07T07:48:21;5.57;;;4.00;;
52866;SDS011;38739;53.324;6.862;2022-08-07T07:50:49;6.00;;;4.10;;
52866;SDS011;38739;53.324;6.862;2022-08-07T07:53:16;4.55;;;3.55;;
52866;SDS011;38739;53.324;6.862;2022-08-07T07:55:45;6.20;;;3.70;;
52866;SDS011;38739;53.324;6.862;2022-08-07T07:58:11;4.78;;;3.60;;
52866;SDS011;38739;53.324;6.862;2022-08-07T08:00:38;5.50;;;3.58;;
52866;SDS011;38739;53.324;6.862;2022-08-07T08:03:06;6.32;;;3.53;;
52866;SDS011;38739;53.324;6.862;2022-08-07T08:05:35;4.72;;;3.72;;
52866;SDS011;38739;53.324;6.862;2022-08-07T08:08:03;5.43;;;3.40;;
52866;SDS011;38739;53.324;6.862;2022-08-07T08:10:29;3.90;;;3.50;;
52866;SDS011;38739;53.324;6.862;2022-08-07T08:12:56;5.97;;;3.42;;
52866;SDS011;38739;53.324;6.862;2022-08-07T08:15:23;4.75;;;3.42;;
52866;SDS011;38739;53.324;6.862;2022-08-07T08:17:51;5.55;;;3.70;;
52866;SDS011;38739;53.324;6.862;2022-08-07T08:20:18;5.72;;;3.65;;
52866;SDS011;38739;53.324;6.862;2022-08-07T08:22:45;4.13;;;3.70;;
52866;SDS011;38739;53.324;6.862;2022-08-07T08:25:32;3.90;;;3.50;;
52866;SDS011;38739;53.324;6.862;2022-08-07T08:28:20;3.92;;;3.53;;
52866;SDS011;38739;53.324;6.862;2022-08-07T08:30:49;5.32;;;3.65;;
52866;SDS011;38739;53.324;6.862;2022-08-07T08:33:20;4.00;;;3.55;;
52866;SDS011;38739;53.324;6.862;2022-08-07T08:35:49;4.68;;;3.42;;
52866;SDS011;38739;53.324;6.862;2022-08-07T08:38:19;3.80;;;3.20;;
52866;SDS011;38739;53.324;6.862;2022-08-07T08:40:50;5.80;;;3.22;;
52866;SDS011;38739;53.324;6.862;2022-08-07T08:43:22;3.70;;;3.22;;
52866;SDS011;38739;53.324;6.862;2022-08-07T08:46:05;5.13;;;3.20;;
52866;SDS011;38739;53.324;6.862;2022-08-07T08:48:50;4.43;;;3.40;;
52866;SDS011;38739;53.324;6.862;2022-08-07T08:51:34;3.97;;;3.10;;
52866;SDS011;38739;53.324;6.862;2022-08-07T08:54:07;3.42;;;2.75;;
52866;SDS011;38739;53.324;6.862;2022-08-07T08:56:54;5.72;;;3.42;;
52866;SDS011;38739;53.324;6.862;2022-08-07T09:02:21;5.57;;;3.15;;
52866;SDS011;38739;53.324;6.862;2022-08-07T09:07:21;3.97;;;3.42;;
52866;SDS011;38739;53.324;6.862;2022-08-07T09:17:36;3.65;;;2.90;;
52866;SDS011;38739;53.324;6.862;2022-08-07T09:20:28;4.53;;;3.00;;
52866;SDS011;38739;53.324;6.862;2022-08-07T09:28:30;4.18;;;3.00;;
52866;SDS011;38739;53.324;6.862;2022-08-07T09:31:06;3.95;;;2.80;;
52866;SDS011;38739;53.324;6.862;2022-08-07T09:34:03;6.25;;;3.00;;
52866;SDS011;38739;53.324;6.862;2022-08-07T09:37:17;3.17;;;2.65;;
52866;SDS011;38739;53.324;6.862;2022-08-07T09:39:44;3.53;;;3.00;;
52866;SDS011;38739;53.324;6.862;2022-08-07T09:42:32;4.05;;;3.17;;
52866;SDS011;38739;53.324;6.862;2022-08-07T09:45:20;9.20;;;3.20;;
52866;SDS011;38739;53.324;6.862;2022-08-07T09:48:10;4.22;;;2.90;;
52866;SDS011;38739;53.324;6.862;2022-08-07T09:53:40;3.25;;;2.80;;
52866;SDS011;38739;53.324;6.862;2022-08-07T10:15:26;3.25;;;2.30;;
52866;SDS011;38739;53.324;6.862;2022-08-07T10:20:54;4.15;;;2.53;;
52866;SDS011;38739;53.324;6.862;2022-08-07T10:31:48;4.28;;;2.30;;
52866;SDS011;38739;53.324;6.862;2022-08-07T10:37:30;6.53;;;2.67;;
52866;SDS011;38739;53.324;6.862;2022-08-07T10:40:20;4.88;;;2.67;;
52866;SDS011;38739;53.324;6.862;2022-08-07T10:43:06;3.38;;;2.35;;
52866;SDS011;38739;53.324;6.862;2022-08-07T10:45:42;3.15;;;2.50;;
52866;SDS011;38739;53.324;6.862;2022-08-07T10:48:15;3.75;;;2.03;;
52866;SDS011;38739;53.324;6.862;2022-08-07T10:50:48;3.55;;;2.40;;
52866;SDS011;38739;53.324;6.862;2022-08-07T10:58:46;3.38;;;2.20;;
52866;SDS011;38739;53.324;6.862;2022-08-07T11:01:37;3.50;;;2.05;;
52866;SDS011;38739;53.324;6.862;2022-08-07T11:04:23;2.25;;;1.73;;
52866;SDS011;38739;53.324;6.862;2022-08-07T11:10:03;2.22;;;1.90;;
52866;SDS011;38739;53.324;6.862;2022-08-07T11:12:37;2.13;;;1.90;;
52866;SDS011;38739;53.324;6.862;2022-08-07T11:15:13;2.83;;;1.90;;
52866;SDS011;38739;53.324;6.862;2022-08-07T11:18:05;2.00;;;1.80;;
52866;SDS011;38739;53.324;6.862;2022-08-07T11:20:55;2.65;;;1.95;;
52866;SDS011;38739;53.324;6.862;2022-08-07T11:26:27;3.38;;;2.05;;
52866;SDS011;38739;53.324;6.862;2022-08-07T11:36:53;3.20;;;2.10;;
52866;SDS011;38739;53.324;6.862;2022-08-07T11:39:49;3.55;;;2.08;;
52866;SDS011;38739;53.324;6.862;2022-08-07T11:51:41;3.08;;;1.85;;
52866;SDS011;38739;53.324;6.862;2022-08-07T12:08:06;2.40;;;1.80;;
52866;SDS011;38739;53.324;6.862;2022-08-07T12:10:41;5.50;;;2.28;;
52866;SDS011;38739;53.324;6.862;2022-08-07T12:16:11;2.78;;;1.70;;
52866;SDS011;38739;53.324;6.862;2022-08-07T12:18:50;2.30;;;1.70;;
52866;SDS011;38739;53.324;6.862;2022-08-07T12:27:32;3.50;;;1.60;;
52866;SDS011;38739;53.324;6.862;2022-08-07T12:30:04;3.28;;;1.70;;
52866;SDS011;38739;53.324;6.862;2022-08-07T12:35:12;2.80;;;1.60;;
52866;SDS011;38739;53.324;6.862;2022-08-07T12:37:40;2.08;;;1.70;;
52866;SDS011;38739;53.324;6.862;2022-08-07T12:40:07;1.95;;;1.73;;
52866;SDS011;38739;53.324;6.862;2022-08-07T12:42:35;2.63;;;1.83;;
52866;SDS011;38739;53.324;6.862;2022-08-07T12:45:07;2.85;;;1.95;;
52866;SDS011;38739;53.324;6.862;2022-08-07T12:47:47;2.35;;;2.08;;
52866;SDS011;38739;53.324;6.862;2022-08-07T12:50:41;3.90;;;2.40;;
52866;SDS011;38739;53.324;6.862;2022-08-07T12:53:32;2.45;;;1.80;;
52866;SDS011;38739;53.324;6.862;2022-08-07T12:59:10;2.58;;;2.10;;
52866;SDS011;38739;53.324;6.862;2022-08-07T13:01:55;2.97;;;2.00;;
52866;SDS011;38739;53.324;6.862;2022-08-07T13:08:50;2.42;;;1.90;;
52866;SDS011;38739;53.324;6.862;2022-08-07T13:21:25;2.53;;;2.13;;
52866;SDS011;38739;53.324;6.862;2022-08-07T13:26:25;3.53;;;1.90;;
52866;SDS011;38739;53.324;6.862;2022-08-07T13:29:17;3.78;;;2.05;;
52866;SDS011;38739;53.324;6.862;2022-08-07T13:31:51;5.80;;;2.00;;
52866;SDS011;38739;53.324;6.862;2022-08-07T13:34:32;4.45;;;1.90;;
52866;SDS011;38739;53.324;6.862;2022-08-07T13:37:12;2.90;;;1.90;;
52866;SDS011;38739;53.324;6.862;2022-08-07T13:39:58;4.18;;;1.92;;
52866;SDS011;38739;53.324;6.862;2022-08-07T13:42:30;3.55;;;2.13;;
52866;SDS011;38739;53.324;6.862;2022-08-07T13:44:57;3.90;;;1.83;;
52866;SDS011;38739;53.324;6.862;2022-08-07T13:47:25;2.65;;;1.88;;
52866;SDS011;38739;53.324;6.862;2022-08-07T13:49:53;3.03;;;1.92;;
52866;SDS011;38739;53.324;6.862;2022-08-07T13:52:24;3.55;;;2.20;;
52866;SDS011;38739;53.324;6.862;2022-08-07T13:54:52;3.47;;;2.00;;
52866;SDS011;38739;53.324;6.862;2022-08-07T13:57:24;2.28;;;1.80;;
52866;SDS011;38739;53.324;6.862;2022-08-07T13:59:51;4.15;;;2.08;;
52866;SDS011;38739;53.324;6.862;2022-08-07T14:02:26;3.55;;;2.00;;
52866;SDS011;38739;53.324;6.862;2022-08-07T14:04:56;2.97;;;1.95;;
52866;SDS011;38739;53.324;6.862;2022-08-07T14:07:29;5.05;;;1.70;;
52866;SDS011;38739;53.324;6.862;2022-08-07T14:09:58;1.95;;;1.75;;
52866;SDS011;38739;53.324;6.862;2022-08-07T14:12:37;3.20;;;1.70;;
52866;SDS011;38739;53.324;6.862;2022-08-07T14:18:05;2.97;;;1.40;;
52866;SDS011;38739;53.324;6.862;2022-08-07T14:20:43;2.70;;;1.50;;
52866;SDS011;38739;53.324;6.862;2022-08-07T14:23:18;2.20;;;1.48;;
52866;SDS011;38739;53.324;6.862;2022-08-07T14:25:53;3.70;;;1.70;;
52866;SDS011;38739;53.324;6.862;2022-08-07T14:28:23;2.80;;;2.00;;
52866;SDS011;38739;53.324;6.862;2022-08-07T14:30:52;2.95;;;1.80;;
52866;SDS011;38739;53.324;6.862;2022-08-07T14:33:19;4.22;;;1.67;;
52866;SDS011;38739;53.324;6.862;2022-08-07T14:35:45;4.53;;;1.98;;
52866;SDS011;38739;53.324;6.862;2022-08-07T14:38:11;3.95;;;1.70;;
52866;SDS011;38739;53.324;6.862;2022-08-07T14:40:39;2.97;;;1.60;;
52866;SDS011;38739;53.324;6.862;2022-08-07T14:43:11;2.75;;;1.60;;
52866;SDS011;38739;53.324;6.862;2022-08-07T14:45:54;3.72;;;1.42;;
52866;SDS011;38739;53.324;6.862;2022-08-07T14:48:32;3.17;;;1.33;;
52866;SDS011;38739;53.324;6.862;2022-08-07T14:51:04;4.88;;;2.88;;
52866;SDS011;38739;53.324;6.862;2022-08-07T14:53:35;4.60;;;2.70;;
52866;SDS011;38739;53.324;6.862;2022-08-07T14:56:03;3.33;;;1.43;;
52866;SDS011;38739;53.324;6.862;2022-08-07T14:58:32;4.80;;;1.30;;
52866;SDS011;38739;53.324;6.862;2022-08-07T15:01:01;3.85;;;1.30;;
52866;SDS011;38739;53.324;6.862;2022-08-07T15:03:28;4.38;;;1.25;;
52866;SDS011;38739;53.324;6.862;2022-08-07T15:05:56;2.45;;;1.50;;
52866;SDS011;38739;53.324;6.862;2022-08-07T15:08:25;3.35;;;1.80;;
52866;SDS011;38739;53.324;6.862;2022-08-07T15:11:05;5.25;;;2.33;;
52866;SDS011;38739;53.324;6.862;2022-08-07T15:13:34;3.03;;;1.40;;
52866;SDS011;38739;53.324;6.862;2022-08-07T15:16:12;5.95;;;1.80;;
52866;SDS011;38739;53.324;6.862;2022-08-07T15:18:45;5.32;;;2.13;;
52866;SDS011;38739;53.324;6.862;2022-08-07T15:21:18;4.13;;;1.80;;
52866;SDS011;38739;53.324;6.862;2022-08-07T15:23:47;5.50;;;2.17;;
52866;SDS011;38739;53.324;6.862;2022-08-07T15:26:18;4.85;;;1.83;;
52866;SDS011;38739;53.324;6.862;2022-08-07T15:28:46;6.93;;;2.50;;
52866;SDS011;38739;53.324;6.862;2022-08-07T15:31:17;4.13;;;2.20;;
52866;SDS011;38739;53.324;6.862;2022-08-07T15:33:48;5.88;;;2.00;;
52866;SDS011;38739;53.324;6.862;2022-08-07T15:36:21;6.88;;;2.00;;
52866;SDS011;38739;53.324;6.862;2022-08-07T15:38:47;3.95;;;1.98;;
52866;SDS011;38739;53.324;6.862;2022-08-07T15:41:15;4.57;;;1.70;;
52866;SDS011;38739;53.324;6.862;2022-08-07T15:43:42;4.80;;;1.80;;
52866;SDS011;38739;53.324;6.862;2022-08-07T15:46:21;3.92;;;1.75;;
52866;SDS011;38739;53.324;6.862;2022-08-07T15:48:51;4.43;;;2.10;;
52866;SDS011;38739;53.324;6.862;2022-08-07T15:51:19;4.90;;;1.92;;
52866;SDS011;38739;53.324;6.862;2022-08-07T15:53:49;4.75;;;2.05;;
52866;SDS011;38739;53.324;6.862;2022-08-07T15:56:18;4.60;;;2.15;;
52866;SDS011;38739;53.324;6.862;2022-08-07T15:58:50;5.10;;;2.10;;
52866;SDS011;38739;53.324;6.862;2022-08-07T16:01:26;6.65;;;1.95;;
52866;SDS011;38739;53.324;6.862;2022-08-07T16:03:58;3.15;;;2.00;;
52866;SDS011;38739;53.324;6.862;2022-08-07T16:06:26;6.10;;;2.10;;
52866;SDS011;38739;53.324;6.862;2022-08-07T16:09:07;5.90;;;1.88;;
52866;SDS011;38739;53.324;6.862;2022-08-07T16:14:28;4.15;;;1.83;;
52866;SDS011;38739;53.324;6.862;2022-08-07T16:23:16;8.52;;;2.53;;
52866;SDS011;38739;53.324;6.862;2022-08-07T16:42:16;8.38;;;2.75;;
52866;SDS011;38739;53.324;6.862;2022-08-07T16:44:58;4.95;;;2.47;;
52866;SDS011;38739;53.324;6.862;2022-08-07T16:50:37;6.63;;;2.80;;
52866;SDS011;38739;53.324;6.862;2022-08-07T16:53:36;8.80;;;2.92;;
52866;SDS011;38739;53.324;6.862;2022-08-07T16:56:32;6.72;;;3.00;;
52866;SDS011;38739;53.324;6.862;2022-08-07T17:07:39;4.03;;;2.60;;
52866;SDS011;38739;53.324;6.862;2022-08-07T17:21:17;5.60;;;2.03;;
52866;SDS011;38739;53.324;6.862;2022-08-07T17:26:43;4.78;;;2.00;;
52866;SDS011;38739;53.324;6.862;2022-08-07T17:32:28;5.43;;;2.15;;
52866;SDS011;38739;53.324;6.862;2022-08-07T17:35:19;4.88;;;1.92;;
52866;SDS011;38739;53.324;6.862;2022-08-07T17:42:52;2.97;;;1.85;;
52866;SDS011;38739;53.324;6.862;2022-08-07T17:45:40;4.28;;;2.05;;
52866;SDS011;38739;53.324;6.862;2022-08-07T17:48:32;5.03;;;1.85;;
52866;SDS011;38739;53.324;6.862;2022-08-07T17:51:20;4.70;;;1.88;;
52866;SDS011;38739;53.324;6.862;2022-08-07T17:56:42;3.70;;;1.75;;
52866;SDS011;38739;53.324;6.862;2022-08-07T17:59:46;4.13;;;1.70;;
52866;SDS011;38739;53.324;6.862;2022-08-07T18:02:16;2.95;;;1.65;;
52866;SDS011;38739;53.324;6.862;2022-08-07T18:15:24;5.28;;;1.50;;
52866;SDS011;38739;53.324;6.862;2022-08-07T18:17:58;5.55;;;1.60;;
52866;SDS011;38739;53.324;6.862;2022-08-07T18:20:28;3.97;;;1.50;;
52866;SDS011;38739;53.324;6.862;2022-08-07T18:23:06;3.30;;;1.58;;
52866;SDS011;38739;53.324;6.862;2022-08-07T18:25:35;4.00;;;1.50;;
52866;SDS011;38739;53.324;6.862;2022-08-07T18:28:26;3.70;;;1.45;;
52866;SDS011;38739;53.324;6.862;2022-08-07T18:31:04;3.92;;;1.38;;
52866;SDS011;38739;53.324;6.862;2022-08-07T18:36:43;3.58;;;1.40;;
52866;SDS011;38739;53.324;6.862;2022-08-07T18:41:51;2.95;;;1.10;;
52866;SDS011;38739;53.324;6.862;2022-08-07T18:44:25;3.08;;;1.50;;
52866;SDS011;38739;53.324;6.862;2022-08-07T18:47:17;5.07;;;1.50;;
52866;SDS011;38739;53.324;6.862;2022-08-07T18:50:06;2.83;;;1.40;;
52866;SDS011;38739;53.324;6.862;2022-08-07T18:58:30;4.97;;;1.60;;